Time,TemperatureF,DewpointF,PressureIn,WindDirection,WindDirectionDegrees,WindSpeedMPH,WindSpeedGustMPH,Humidity,HourlyPrecipIn,Conditions,Clouds,dailyrainin,SolarRadiationWatts/m^2,SoftwareType,DateUTC
2013-11-07 00:44:00,41.0,37.0,-100.00,East,88,2.0,5.0,85,0.00,,,0.00,0.000000,,2013-11-07 05:44:00,
2013-11-07 01:10:00,42.0,38.0,-100.00,East,90,2.0,4.0,86,-99.99,,,0.00,0.000000,,2013-11-07 06:10:00,
2013-11-07 01:42:00,42.0,38.0,-100.00,East,90,2.0,4.0,86,-99.99,,,0.00,0.000000,,2013-11-07 06:42:00,
2013-11-07 03:42:00,44.0,40.0,-100.00,East,79,1.0,2.0,86,-99.99,,,0.00,0.000000,,2013-11-07 08:42:00,
2013-11-07 06:10:00,46.0,44.0,-100.00,ENE,59,1.0,3.0,93,-99.99,,,0.02,0.000000,,2013-11-07 11:10:00,
2013-11-07 06:52:00,46.0,44.0,-100.00,ENE,59,1.0,3.0,93,-99.99,,,0.02,0.000000,,2013-11-07 11:52:00,
2013-11-07 07:02:00,46.0,44.0,-100.00,ENE,59,1.0,3.0,93,-99.99,,,0.02,0.000000,,2013-11-07 12:02:00,
2013-11-07 07:10:00,46.0,45.0,-100.00,East,85,0.0,3.0,96,0.02,,,0.04,0.000000,,2013-11-07 12:10:00,
2013-11-07 07:42:00,46.0,45.0,-100.00,East,85,0.0,3.0,96,0.02,,,0.04,0.000000,,2013-11-07 12:42:00,
2013-11-07 07:52:00,46.0,45.0,-100.00,East,85,0.0,3.0,96,0.02,,,0.04,0.000000,,2013-11-07 12:52:00,
2013-11-07 08:01:00,46.0,45.0,-100.00,East,85,0.0,3.0,96,0.02,,,0.04,0.000000,,2013-11-07 13:01:00,
2013-11-07 08:10:00,47.0,46.0,-100.00,East,81,1.0,3.0,96,0.08,,,0.12,5.000000,,2013-11-07 13:10:00,
2013-11-07 08:42:00,47.0,46.0,-100.00,East,81,1.0,3.0,96,0.08,,,0.12,5.000000,,2013-11-07 13:42:00,
2013-11-07 08:52:00,47.0,46.0,-100.00,East,81,1.0,3.0,96,0.08,,,0.12,5.000000,,2013-11-07 13:52:00,
2013-11-07 09:02:00,47.0,46.0,-100.00,East,81,1.0,3.0,96,0.08,,,0.12,5.000000,,2013-11-07 14:02:00,
2013-11-07 09:10:00,50.0,49.0,-100.00,SSW,213,0.0,2.0,97,0.04,,,0.16,21.000000,,2013-11-07 14:10:00,
2013-11-07 09:42:00,50.0,49.0,-100.00,SSW,213,0.0,2.0,97,0.04,,,0.16,21.000000,,2013-11-07 14:42:00,
2013-11-07 09:52:00,50.0,49.0,-100.00,SSW,213,0.0,2.0,97,0.04,,,0.16,21.000000,,2013-11-07 14:52:00,
2013-11-07 10:02:00,50.0,49.0,-100.00,SSW,213,0.0,2.0,97,0.04,,,0.16,21.000000,,2013-11-07 15:02:00,
2013-11-07 10:10:00,51.0,50.0,-100.00,SW,217,0.0,2.0,97,0.05,,,0.21,33.000000,,2013-11-07 15:10:00,
2013-11-07 10:43:00,51.0,50.0,-100.00,SW,217,0.0,2.0,97,0.05,,,0.21,33.000000,,2013-11-07 15:43:00,
2013-11-07 10:53:00,51.0,50.0,-100.00,SW,217,0.0,2.0,97,0.05,,,0.21,33.000000,,2013-11-07 15:53:00,
2013-11-07 11:04:00,51.0,50.0,-100.00,SW,217,0.0,2.0,97,0.05,,,0.21,33.000000,,2013-11-07 16:04:00,
2013-11-07 11:10:00,50.0,49.0,-100.00,West,276,5.0,15.0,97,0.12,,,0.33,36.000000,,2013-11-07 16:10:00,
2013-11-07 11:42:00,50.0,49.0,-100.00,West,276,5.0,15.0,97,0.12,,,0.33,36.000000,,2013-11-07 16:42:00,
2013-11-07 11:52:00,50.0,49.0,-100.00,West,276,5.0,15.0,97,0.12,,,0.33,36.000000,,2013-11-07 16:52:00,
2013-11-07 12:02:00,50.0,49.0,-100.00,West,276,5.0,15.0,97,0.12,,,0.33,36.000000,,2013-11-07 17:02:00,
2013-11-07 12:10:00,49.0,47.0,-100.00,ESE,112,2.0,10.0,94,0.03,,,0.36,51.000000,,2013-11-07 17:10:00,
2013-11-07 12:43:00,49.0,47.0,-100.00,ESE,112,2.0,10.0,94,0.03,,,0.36,51.000000,,2013-11-07 17:43:00,
2013-11-07 13:02:00,49.0,47.0,-100.00,ESE,112,2.0,10.0,94,0.03,,,0.36,51.000000,,2013-11-07 18:02:00,
2013-11-07 13:10:00,47.0,45.0,-100.00,West,278,2.0,7.0,92,0.02,,,0.38,49.000000,,2013-11-07 18:10:00,
2013-11-07 13:42:00,47.0,45.0,-100.00,West,278,2.0,7.0,92,0.02,,,0.38,49.000000,,2013-11-07 18:42:00,
2013-11-07 13:52:00,47.0,45.0,-100.00,West,278,2.0,7.0,92,0.02,,,0.38,49.000000,,2013-11-07 18:52:00,
2013-11-07 14:01:00,47.0,45.0,-100.00,West,278,2.0,7.0,92,0.02,,,0.38,49.000000,,2013-11-07 19:01:00,
2013-11-07 14:10:00,45.0,41.0,-100.00,WNW,287,3.0,11.0,85,0.00,,,0.38,39.000000,,2013-11-07 19:10:00,
2013-11-07 14:42:00,45.0,41.0,-100.00,WNW,287,3.0,11.0,85,0.00,,,0.38,39.000000,,2013-11-07 19:42:00,
2013-11-07 14:52:00,45.0,41.0,-100.00,WNW,287,3.0,11.0,85,0.00,,,0.38,39.000000,,2013-11-07 19:52:00,
2013-11-07 15:01:00,45.0,41.0,-100.00,WNW,287,3.0,11.0,85,0.00,,,0.38,39.000000,,2013-11-07 20:01:00,
2013-11-07 15:10:00,43.0,37.0,-100.00,WNW,288,2.0,9.0,78,0.00,,,0.38,52.000000,,2013-11-07 20:10:00,
2013-11-07 15:42:00,43.0,37.0,-100.00,WNW,288,2.0,9.0,78,0.00,,,0.38,52.000000,,2013-11-07 20:42:00,
2013-11-07 15:52:00,43.0,37.0,-100.00,WNW,288,2.0,9.0,78,0.00,,,0.38,52.000000,,2013-11-07 20:52:00,
2013-11-07 16:02:00,43.0,37.0,-100.00,WNW,288,2.0,9.0,78,0.00,,,0.38,52.000000,,2013-11-07 21:02:00,
2013-11-07 16:10:00,42.0,36.0,-100.00,West,278,3.0,10.0,78,0.00,,,0.38,24.000000,,2013-11-07 21:10:00,
2013-11-07 16:43:00,42.0,36.0,-100.00,West,278,3.0,10.0,78,0.00,,,0.38,24.000000,,2013-11-07 21:43:00,
2013-11-07 16:54:00,42.0,36.0,-100.00,West,278,3.0,10.0,78,0.00,,,0.38,24.000000,,2013-11-07 21:54:00,
2013-11-07 17:03:00,42.0,36.0,-100.00,West,278,3.0,10.0,78,0.00,,,0.38,24.000000,,2013-11-07 22:03:00,
2013-11-07 17:10:00,40.0,33.0,-100.00,West,269,4.0,10.0,77,0.00,,,0.38,3.000000,,2013-11-07 22:10:00,
2013-11-07 17:43:00,40.0,33.0,-100.00,West,269,4.0,10.0,77,0.00,,,0.38,3.000000,,2013-11-07 22:43:00,
2013-11-07 17:53:00,40.0,33.0,-100.00,West,269,4.0,10.0,77,0.00,,,0.38,3.000000,,2013-11-07 22:53:00,
2013-11-07 18:03:00,40.0,33.0,-100.00,West,269,4.0,10.0,77,0.00,,,0.38,3.000000,,2013-11-07 23:03:00,
2013-11-07 18:10:00,39.0,31.0,-100.00,WSW,253,2.0,11.0,73,0.00,,,0.38,0.000000,,2013-11-07 23:10:00,
2013-11-07 18:43:00,39.0,31.0,-100.00,WSW,253,2.0,11.0,73,0.00,,,0.38,0.000000,,2013-11-07 23:43:00,
2013-11-07 18:53:00,39.0,31.0,-100.00,WSW,253,2.0,11.0,73,0.00,,,0.38,0.000000,,2013-11-07 23:53:00,
2013-11-07 19:02:00,39.0,31.0,-100.00,WSW,253,2.0,11.0,73,0.00,,,0.38,0.000000,,2013-11-08 00:02:00,
2013-11-07 19:10:00,39.0,31.0,-100.00,West,274,3.0,7.0,73,0.00,,,0.38,0.000000,,2013-11-08 00:10:00,
2013-11-07 19:42:00,39.0,31.0,-100.00,West,274,3.0,7.0,73,0.00,,,0.38,0.000000,,2013-11-08 00:42:00,
2013-11-07 19:52:00,39.0,31.0,-100.00,West,274,3.0,7.0,73,0.00,,,0.38,0.000000,,2013-11-08 00:52:00,
2013-11-07 20:03:00,39.0,31.0,-100.00,West,274,3.0,7.0,73,0.00,,,0.38,0.000000,,2013-11-08 01:03:00,
2013-11-07 20:10:00,38.0,29.0,-100.00,North,349,2.0,13.0,69,0.00,,,0.38,0.000000,,2013-11-08 01:10:00,
2013-11-07 20:42:00,38.0,29.0,-100.00,North,349,2.0,13.0,69,0.00,,,0.38,0.000000,,2013-11-08 01:42:00,
2013-11-07 20:52:00,38.0,29.0,-100.00,North,349,2.0,13.0,69,0.00,,,0.38,0.000000,,2013-11-08 01:52:00,
2013-11-07 21:02:00,38.0,29.0,-100.00,North,349,2.0,13.0,69,0.00,,,0.38,0.000000,,2013-11-08 02:02:00,
2013-11-07 21:10:00,37.0,27.0,-100.00,West,276,2.0,8.0,68,0.00,,,0.38,0.000000,,2013-11-08 02:10:00,
2013-11-07 21:42:00,37.0,27.0,-100.00,West,276,2.0,8.0,68,0.00,,,0.38,0.000000,,2013-11-08 02:42:00,
2013-11-07 21:52:00,37.0,27.0,-100.00,West,276,2.0,8.0,68,0.00,,,0.38,0.000000,,2013-11-08 02:52:00,
2013-11-07 22:02:00,37.0,27.0,-100.00,West,276,2.0,8.0,68,0.00,,,0.38,0.000000,,2013-11-08 03:02:00,
2013-11-07 22:10:00,36.0,23.0,-100.00,WNW,283,3.0,17.0,59,0.00,,,0.38,0.000000,,2013-11-08 03:10:00,
2013-11-07 22:44:00,36.0,23.0,-100.00,WNW,283,3.0,17.0,59,0.00,,,0.38,0.000000,,2013-11-08 03:44:00,
2013-11-07 22:55:00,36.0,23.0,-100.00,WNW,283,3.0,17.0,59,0.00,,,0.38,0.000000,,2013-11-08 03:55:00,
2013-11-07 23:05:00,36.0,23.0,-100.00,WNW,283,3.0,17.0,59,0.00,,,0.38,0.000000,,2013-11-08 04:05:00,
2013-11-07 23:10:00,35.0,22.0,-100.00,West,281,3.0,12.0,58,0.00,,,0.38,0.000000,,2013-11-08 04:10:00,
2013-11-07 23:44:00,35.0,22.0,-100.00,West,281,3.0,12.0,58,0.00,,,0.38,0.000000,,2013-11-08 04:44:00,
2013-11-07 23:54:00,35.0,22.0,-100.00,West,281,3.0,12.0,58,0.00,,,0.38,0.000000,,2013-11-08 04:54:00,